Time;durP1;ratioP1;P1;durP2;ratioP2;P2;SDS_P1;SDS_P2;PMS_P1;PMS_P2;Temp;Humidity;BMP_temperature;BMP_pressure;BME280_temperature;BME280_humidity;BME280_pressure;Samples;Min_cycle;Max_cycle;Signal;HPM_P1;HPM_P2
2023/03/17 18:20:22;;;;;;;5.50;4.33;;;9.90;1.00;;;;;;6147791;22;1243308;-80
2023/03/17 18:22:48;;;;;;;4.40;4.00;;;9.90;1.00;;;;;;6145697;23;20167;-81
2023/03/17 18:25:14;;;;;;;5.87;4.63;;;9.80;1.00;;;;;;6145890;23;20290;-79
2023/03/17 18:27:41;;;;;;;4.20;3.80;;;9.70;1.00;;;;;;6146147;23;20215;-79
2023/03/17 18:30:10;;;;;;;4.20;3.90;;;9.70;1.00;;;;;;6146637;23;20608;-79
2023/03/17 18:32:36;;;;;;;4.10;3.57;;;9.60;1.00;;;;;;6118654;23;20195;-79
2023/03/17 18:35:07;;;;;;;5.83;4.57;;;9.50;1.00;;;;;;6144556;23;20176;-79
2023/03/17 18:37:35;;;;;;;4.80;4.40;;;9.50;1.00;;;;;;6116963;23;20215;-80
2023/03/17 18:40:01;;;;;;;4.30;3.83;;;9.60;1.00;;;;;;6117114;23;20172;-79
2023/03/17 18:42:27;;;;;;;5.10;4.33;;;9.70;1.00;;;;;;6116552;23;20612;-79
2023/03/17 18:44:52;;;;;;;4.07;3.67;;;10.00;1.00;;;;;;6114515;23;20190;-79
2023/03/17 18:47:18;;;;;;;5.57;4.00;;;9.90;1.00;;;;;;6141552;23;20187;-79
2023/03/17 18:49:43;;;;;;;4.30;3.90;;;9.60;1.00;;;;;;6115697;23;20325;-79
2023/03/17 18:52:11;;;;;;;6.93;4.30;;;9.60;1.00;;;;;;6115059;23;20225;-80
2023/03/17 18:54:36;;;;;;;4.57;4.03;;;9.60;1.00;;;;;;6141292;23;20186;-81
2023/03/17 18:57:02;;;;;;;4.97;3.70;;;9.60;1.00;;;;;;6115169;23;20608;-79
2023/03/17 18:59:27;;;;;;;4.50;3.90;;;9.50;1.00;;;;;;6146643;23;20182;-79
2023/03/17 19:01:53;;;;;;;6.50;4.50;;;9.40;1.00;;;;;;6147399;23;20558;-80
2023/03/17 19:04:18;;;;;;;7.70;6.83;;;9.40;1.00;;;;;;6146556;23;20321;-79
2023/03/17 19:06:44;;;;;;;13.07;11.97;;;9.40;1.00;;;;;;6120286;23;20541;-79
2023/03/17 19:09:10;;;;;;;20.23;18.37;;;9.30;1.00;;;;;;6146785;23;20159;-79
2023/03/17 19:11:38;;;;;;;18.73;16.93;;;9.30;1.00;;;;;;6145818;23;20163;-78
2023/03/17 19:14:04;;;;;;;7.77;7.07;;;9.20;1.00;;;;;;6144993;23;20490;-80
2023/03/17 19:16:30;;;;;;;14.63;6.07;;;9.30;1.00;;;;;;6118870;23;20166;-81
2023/03/17 19:18:57;;;;;;;6.77;5.83;;;9.20;1.00;;;;;;6118100;23;20167;-81
2023/03/17 19:21:24;;;;;;;6.33;5.80;;;9.20;1.00;;;;;;6118146;23;20556;-79
2023/03/17 19:23:51;;;;;;;5.70;5.10;;;9.20;1.00;;;;;;6118639;23;20194;-79
2023/03/17 19:26:17;;;;;;;8.20;7.47;;;9.10;1.00;;;;;;6119095;23;20187;-79
2023/03/17 19:28:43;;;;;;;12.30;11.20;;;9.10;1.00;;;;;;6119858;23;20162;-79
2023/03/17 19:31:09;;;;;;;7.93;7.10;;;9.10;1.00;;;;;;6148292;23;20147;-78
2023/03/17 19:33:36;;;;;;;6.27;4.70;;;9.00;1.00;;;;;;6114928;23;20239;-80
2023/03/17 19:36:15;;;;;;;5.10;4.60;;;8.90;1.00;;;;;;6115429;23;20180;-79
2023/03/17 19:38:47;;;;;;;4.83;4.43;;;8.60;1.00;;;;;;6141888;23;20201;-80
2023/03/17 19:41:36;;;;;;;5.33;4.87;;;8.90;1.00;;;;;;6151965;23;20215;-78
2023/03/17 19:44:06;;;;;;;5.20;4.70;;;8.90;1.00;;;;;;6163137;23;20187;-77
2023/03/17 19:46:42;;;;;;;6.03;5.43;;;8.80;1.00;;;;;;6167429;23;20175;-77
2023/03/17 19:49:11;;;;;;;5.33;4.83;;;8.80;1.00;;;;;;6119388;23;20173;-77
2023/03/17 19:51:42;;;;;;;5.20;4.70;;;8.70;1.00;;;;;;6114524;23;20168;-78
2023/03/17 19:54:21;;;;;;;6.37;5.13;;;8.80;1.00;;;;;;6140752;23;20236;-79
2023/03/17 19:56:56;;;;;;;6.07;5.13;;;8.70;1.00;;;;;;6167020;23;20144;-81
2023/03/17 19:59:27;;;;;;;6.27;5.50;;;8.70;1.00;;;;;;6112376;23;20168;-78
2023/03/17 20:05:15;;;;;;;6.80;6.10;;;8.60;1.00;;;;;;6162758;23;20230;-81
2023/03/17 20:07:45;;;;;;;6.70;6.00;;;8.60;1.00;;;;;;6165745;23;20152;-80
2023/03/17 20:10:13;;;;;;;13.73;8.63;;;8.50;1.00;;;;;;6166066;23;20175;-79
2023/03/17 20:13:00;;;;;;;8.13;6.30;;;8.50;1.00;;;;;;6162905;23;20163;-79
2023/03/17 20:15:30;;;;;;;5.80;5.20;;;8.60;1.00;;;;;;6141349;23;20159;-80
2023/03/17 20:18:21;;;;;;;6.73;6.13;;;8.60;1.00;;;;;;6141173;23;20211;-79
2023/03/17 20:20:54;;;;;;;6.53;5.57;;;8.70;1.00;;;;;;6169102;23;20191;-80
2023/03/17 20:23:24;;;;;;;6.40;5.80;;;8.30;1.00;;;;;;6166657;23;20211;-83
2023/03/17 20:25:52;;;;;;;5.97;5.30;;;8.60;1.00;;;;;;6165579;23;20187;-80
2023/03/17 20:28:20;;;;;;;5.33;4.83;;;8.70;1.00;;;;;;6127983;23;20190;-80
2023/03/17 20:30:46;;;;;;;5.80;4.93;;;8.60;1.00;;;;;;6124853;23;20182;-81
2023/03/17 20:33:12;;;;;;;5.90;4.80;;;8.60;1.00;;;;;;6153308;23;20178;-81
2023/03/17 20:35:40;;;;;;;6.43;5.27;;;8.60;1.00;;;;;;6150251;23;20148;-80
2023/03/17 20:38:07;;;;;;;5.30;4.80;;;8.70;1.00;;;;;;6125286;23;20220;-80
2023/03/17 20:40:33;;;;;;;5.07;4.67;;;8.70;1.00;;;;;;6152204;23;20159;-81
2023/03/17 20:42:59;;;;;;;5.50;4.90;;;8.70;1.00;;;;;;6149950;23;20155;-80
2023/03/17 20:45:25;;;;;;;6.70;5.10;;;8.70;1.00;;;;;;6152254;23;20156;-82
2023/03/17 20:47:52;;;;;;;7.80;5.07;;;8.70;1.00;;;;;;6124276;23;20239;-82
2023/03/17 20:50:18;;;;;;;8.10;5.07;;;8.70;1.00;;;;;;6098871;23;20187;-79
2023/03/17 20:52:43;;;;;;;5.10;4.60;;;8.70;1.00;;;;;;6120175;23;20156;-79
2023/03/17 20:55:13;;;;;;;5.37;4.87;;;8.70;1.00;;;;;;6119368;23;20298;-78
2023/03/17 20:57:40;;;;;;;5.30;4.80;;;8.70;1.00;;;;;;6120435;23;20171;-79
2023/03/17 21:00:15;;;;;;;6.00;4.83;;;8.60;1.00;;;;;;6120134;23;20190;-79
2023/03/17 21:02:41;;;;;;;5.27;4.77;;;8.60;1.00;;;;;;6120587;23;20234;-79
2023/03/17 21:05:07;;;;;;;5.60;5.10;;;8.60;1.00;;;;;;6146007;23;20197;-79
2023/03/17 21:07:33;;;;;;;5.53;4.70;;;8.60;1.00;;;;;;6120062;23;20194;-78
2023/03/17 21:10:00;;;;;;;5.13;4.30;;;8.60;1.00;;;;;;6119931;23;20175;-79
2023/03/17 21:12:27;;;;;;;5.43;4.37;;;8.60;1.00;;;;;;6120510;23;20160;-79
2023/03/17 21:14:52;;;;;;;5.23;4.33;;;8.70;1.00;;;;;;6119310;23;20636;-80
2023/03/17 21:17:18;;;;;;;4.60;4.20;;;8.80;1.00;;;;;;6146625;23;20155;-79
2023/03/17 21:19:44;;;;;;;4.60;3.90;;;8.90;1.00;;;;;;6120635;23;20646;-80
2023/03/17 21:22:10;;;;;;;5.27;3.87;;;9.00;1.00;;;;;;6120343;23;20691;-79
2023/03/17 21:24:38;;;;;;;4.63;3.73;;;9.10;1.00;;;;;;6145213;23;20175;-80
2023/03/17 21:27:07;;;;;;;4.13;3.73;;;9.10;1.00;;;;;;6120137;23;20531;-80
2023/03/17 21:29:33;;;;;;;5.97;4.27;;;9.10;1.00;;;;;;6146780;23;20152;-79
2023/03/17 21:32:00;;;;;;;4.20;3.80;;;9.10;1.00;;;;;;6146366;23;20179;-79
2023/03/17 21:34:27;;;;;;;4.10;3.70;;;9.10;1.00;;;;;;6145633;23;20183;-80
2023/03/17 21:36:54;;;;;;;4.33;3.90;;;9.10;1.00;;;;;;6146078;23;20482;-80
2023/03/17 21:39:19;;;;;;;4.43;3.60;;;9.00;1.00;;;;;;6120003;23;20255;-79
2023/03/17 21:41:47;;;;;;;3.80;3.30;;;9.10;1.00;;;;;;6120072;23;20171;-79
2023/03/17 21:44:14;;;;;;;3.90;3.50;;;9.10;1.00;;;;;;6117445;23;20190;-78
2023/03/17 21:46:41;;;;;;;4.93;3.23;;;9.20;1.00;;;;;;6120336;23;20258;-79
2023/03/17 21:49:06;;;;;;;3.70;2.80;;;9.20;1.00;;;;;;6146738;23;20167;-80
2023/03/17 21:51:33;;;;;;;3.50;3.10;;;9.40;1.00;;;;;;6146129;23;20156;-79
2023/03/17 21:53:59;;;;;;;3.40;2.90;;;9.40;1.00;;;;;;6121021;23;20175;-80
2023/03/17 21:56:26;;;;;;;3.93;3.00;;;9.40;1.00;;;;;;6122182;23;20162;-80
2023/03/17 21:58:53;;;;;;;4.13;3.57;;;9.40;1.00;;;;;;6122329;23;20195;-79
2023/03/17 22:01:20;;;;;;;3.80;2.90;;;9.50;1.00;;;;;;6148623;23;20235;-81
2023/03/17 22:03:46;;;;;;;3.57;3.20;;;9.50;1.00;;;;;;6120755;23;20215;-79
2023/03/17 22:06:14;;;;;;;4.53;3.27;;;9.40;1.00;;;;;;6148514;23;20202;-79
2023/03/17 22:08:40;;;;;;;40.00;21.20;;;9.40;1.00;;;;;;6121903;23;20600;-80
2023/03/17 22:11:08;;;;;;;5.57;4.37;;;9.40;1.00;;;;;;6147962;23;20227;-79
2023/03/17 22:13:34;;;;;;;4.60;3.67;;;9.30;1.00;;;;;;6120942;23;20176;-79
2023/03/17 22:16:01;;;;;;;4.67;4.03;;;9.20;1.00;;;;;;6121966;23;20238;-80
2023/03/17 22:18:26;;;;;;;5.10;4.03;;;9.20;1.00;;;;;;6149905;23;20863;-79
2023/03/17 22:20:53;;;;;;;5.03;4.10;;;9.20;1.00;;;;;;6125532;23;20190;-80
2023/03/17 22:23:19;;;;;;;4.43;4.03;;;9.10;1.00;;;;;;6124370;23;20193;-79
2023/03/17 22:25:45;;;;;;;5.87;5.33;;;9.10;1.00;;;;;;6151453;23;21093;-81
2023/03/17 22:28:11;;;;;;;4.83;4.33;;;9.00;1.00;;;;;;6124970;23;20783;-80
2023/03/17 22:30:38;;;;;;;5.07;4.40;;;9.00;1.00;;;;;;6150692;23;20148;-82
2023/03/17 22:33:05;;;;;;;4.63;4.10;;;8.90;1.00;;;;;;6151660;23;20175;-79
2023/03/17 22:35:31;;;;;;;4.77;4.30;;;8.90;1.00;;;;;;6150652;23;20148;-82
2023/03/17 22:37:58;;;;;;;4.40;4.00;;;8.80;1.00;;;;;;6124998;23;20248;-82
2023/03/17 22:40:24;;;;;;;4.23;3.83;;;9.10;1.00;;;;;;6151756;23;20166;-79
2023/03/17 22:42:50;;;;;;;7.80;7.10;;;8.80;1.00;;;;;;6148705;23;20231;-80
2023/03/17 22:45:16;;;;;;;5.93;5.27;;;8.80;1.00;;;;;;6150680;23;20159;-81
2023/03/17 22:47:42;;;;;;;6.37;5.17;;;8.70;1.00;;;;;;6124895;23;20202;-82
2023/03/17 22:50:08;;;;;;;5.00;4.60;;;8.80;1.00;;;;;;6151988;23;20156;-82
2023/03/17 22:52:34;;;;;;;5.10;4.60;;;8.70;1.00;;;;;;6125320;23;20155;-81
2023/03/17 22:55:00;;;;;;;5.50;4.40;;;8.70;1.00;;;;;;6124656;23;20180;-81
2023/03/17 22:57:25;;;;;;;5.13;4.50;;;8.70;1.00;;;;;;6150916;23;20537;-80
2023/03/17 22:59:51;;;;;;;4.33;3.93;;;8.70;1.00;;;;;;6152777;23;20182;-81
2023/03/17 23:02:17;;;;;;;6.77;5.80;;;8.70;1.00;;;;;;6154308;23;20255;-82
2023/03/17 23:04:44;;;;;;;4.77;3.90;;;8.70;1.00;;;;;;6126429;23;20853;-81
2023/03/17 23:07:10;;;;;;;4.97;4.10;;;8.70;1.00;;;;;;6153428;23;20229;-83
2023/03/17 23:09:37;;;;;;;4.83;4.17;;;8.80;1.00;;;;;;6128078;23;20662;-80
2023/03/17 23:12:03;;;;;;;4.87;3.47;;;8.80;1.00;;;;;;6154144;23;20530;-82
2023/03/17 23:14:28;;;;;;;10.67;9.50;;;8.90;1.00;;;;;;6153094;23;20207;-79
2023/03/17 23:16:54;;;;;;;5.80;3.70;;;9.00;1.00;;;;;;6127790;23;20246;-81
2023/03/17 23:19:20;;;;;;;5.50;4.10;;;9.00;1.00;;;;;;6127694;23;20272;-83
2023/03/17 23:21:45;;;;;;;15.67;11.73;;;9.00;1.00;;;;;;6127368;23;20691;-82
2023/03/17 23:24:11;;;;;;;6.27;4.90;;;9.00;1.00;;;;;;6152745;23;20211;-81
2023/03/17 23:26:36;;;;;;;6.63;5.57;;;9.00;1.00;;;;;;6154426;23;20218;-81
2023/03/17 23:29:04;;;;;;;5.87;3.90;;;9.00;1.00;;;;;;6127282;23;20160;-82
2023/03/17 23:31:30;;;;;;;4.00;3.00;;;9.00;1.00;;;;;;6127979;23;20159;-82
2023/03/17 23:33:57;;;;;;;9.23;7.63;;;9.00;1.00;;;;;;6153480;23;20757;-82
2023/03/17 23:36:22;;;;;;;6.53;4.60;;;8.90;1.00;;;;;;6127039;23;20175;-82
2023/03/17 23:38:49;;;;;;;13.97;11.17;;;8.90;1.00;;;;;;6152730;23;20152;-81
2023/03/17 23:41:14;;;;;;;13.43;10.27;;;8.90;1.00;;;;;;6151976;23;20160;-80
2023/03/17 23:43:41;;;;;;;10.17;8.53;;;8.90;1.00;;;;;;6125871;23;20499;-79
2023/03/17 23:46:07;;;;;;;8.73;7.93;;;9.00;1.00;;;;;;6151565;23;20203;-80
2023/03/17 23:48:32;;;;;;;3.63;3.30;;;9.00;1.00;;;;;;6152044;23;20187;-80
2023/03/17 23:50:58;;;;;;;4.90;3.10;;;8.90;1.00;;;;;;6126018;23;20920;-80
2023/03/17 23:53:25;;;;;;;3.83;3.30;;;8.90;1.00;;;;;;6152133;23;20172;-80
2023/03/17 23:55:51;;;;;;;4.83;3.50;;;8.80;1.00;;;;;;6152437;23;20163;-79
2023/03/17 23:58:17;;;;;;;4.07;3.53;;;8.80;1.00;;;;;;6125502;23;20261;-80
